Terminal Aerodrome Forecast
Issued by NWS

Current Version | Previous Version | Text Only | Print | Product List | Glossary Off
Versions: 1 2 3 4 5 6 7 8 9 10 11 12 13 14 15 16 17 18 19 20 21 22 23 24 25 26 27 28 29 30 31 32 33 34 35 36 37 38 39 40

000
FTUS41 KRNK 282345 CCA
TAFLWB
TAF COR
KLWB 282345Z 2900/2924 00000KT P6SM BKN250
     FM290800 13005KT P6SM BKN150 OVC250
     FM291500 21008G16KT P6SM -SHRA BKN050 OVC100
      TEMPO 2916/2920 4SM -SHRA BKN035 OVC050
     FM292100 22010G20KT P6SM -SHRA BKN025 OVC050=

USA.gov is the U.S. government's official web portal to all federal, state and local government web resources and services.